createdAt,value
2023-05-16T00:01:42.596Z,40.21
2023-05-16T00:04:33.192Z,40.45
2023-05-16T00:07:23.197Z,39.49
2023-05-16T00:10:12.713Z,38.92
2023-05-16T00:13:02.049Z,38.36
2023-05-16T00:15:51.747Z,38.40
2023-05-16T00:18:40.331Z,37.94
2023-05-16T00:21:28.951Z,37.54
2023-05-16T00:24:18.896Z,37.53
2023-05-16T00:27:09.021Z,37.29
2023-05-16T00:29:57.634Z,37.40
2023-05-16T00:32:46.342Z,37.34
2023-05-16T00:35:35.002Z,37.21
2023-05-16T00:38:23.737Z,36.70
2023-05-16T00:41:13.824Z,36.97
2023-05-16T00:44:02.376Z,36.98
2023-05-16T00:46:50.963Z,36.88
2023-05-16T00:49:39.706Z,36.70
2023-05-16T00:52:30.879Z,36.89
2023-05-16T00:55:19.589Z,37.01
2023-05-16T00:58:11.105Z,37.03
2023-05-16T01:00:59.857Z,36.62
2023-05-16T01:03:48.972Z,36.77
2023-05-16T01:06:37.823Z,36.56
2023-05-16T01:09:26.493Z,36.57
2023-05-16T01:12:21.441Z,36.57
2023-05-16T01:15:16.982Z,36.68
2023-05-16T01:18:11.237Z,36.94
2023-05-16T01:21:03.953Z,36.82
2023-05-16T01:23:59.880Z,36.87
2023-05-16T01:26:51.364Z,36.77
2023-05-16T01:29:39.949Z,36.68
2023-05-16T01:32:28.544Z,36.18
2023-05-16T01:35:18.898Z,35.88
2023-05-16T01:38:18.034Z,36.02
2023-05-16T01:41:14.587Z,36.41
2023-05-16T01:44:18.617Z,36.61
2023-05-16T01:47:11.857Z,36.41
2023-05-16T01:50:08.475Z,36.12
2023-05-16T01:53:01.916Z,36.52
2023-05-16T01:55:53.312Z,36.53
2023-05-16T01:58:43.656Z,36.49
2023-05-16T02:01:34.008Z,36.56
2023-05-16T02:04:24.245Z,36.96
2023-05-16T02:07:14.903Z,37.31
2023-05-16T02:10:04.906Z,37.34
2023-05-16T02:12:53.781Z,37.17
2023-05-16T02:15:42.370Z,37.62
2023-05-16T02:18:32.731Z,37.40
2023-05-16T02:21:21.599Z,37.26
2023-05-16T02:24:10.347Z,37.16
2023-05-16T02:26:58.969Z,37.36
2023-05-16T02:29:47.583Z,37.34
2023-05-16T02:32:36.212Z,37.24
2023-05-16T02:35:26.642Z,37.31
2023-05-16T02:38:17.559Z,37.26
2023-05-16T02:41:06.391Z,37.31
2023-05-16T02:43:55.106Z,37.34
2023-05-16T02:46:44.069Z,37.17
2023-05-16T02:49:32.848Z,37.53
2023-05-16T02:52:22.808Z,37.64
2023-05-16T02:58:04.034Z,37.46
2023-05-16T03:00:53.080Z,37.55
2023-05-16T03:03:44.879Z,37.62
2023-05-16T03:06:33.585Z,37.64
2023-05-16T03:09:23.636Z,37.33
2023-05-16T03:12:13.340Z,37.24
2023-05-16T03:15:02.019Z,37.18
2023-05-16T03:17:50.784Z,36.96
2023-05-16T03:20:39.620Z,36.92
2023-05-16T03:23:28.163Z,36.97
2023-05-16T03:26:18.208Z,36.98
2023-05-16T03:29:06.786Z,37.03
2023-05-16T03:31:55.843Z,37.27
2023-05-16T03:34:44.447Z,37.10
2023-05-16T03:37:33.062Z,37.20
2023-05-16T03:40:22.200Z,36.85
2023-05-16T03:43:12.436Z,37.13
2023-05-16T03:46:03.218Z,37.42
2023-05-16T03:48:51.946Z,37.22
2023-05-16T03:51:40.513Z,37.39
2023-05-16T03:54:29.118Z,37.42
2023-05-16T03:57:17.709Z,37.34
2023-05-16T04:00:09.449Z,37.44
2023-05-16T04:02:58.343Z,37.45
2023-05-16T04:05:47.034Z,37.46
2023-05-16T04:08:35.877Z,37.57
2023-05-16T04:11:24.471Z,37.38
2023-05-16T04:14:14.485Z,37.72
2023-05-16T04:17:04.459Z,37.44
2023-05-16T04:19:53.123Z,37.15
2023-05-16T04:22:42.889Z,37.21
2023-05-16T04:25:32.072Z,36.40
2023-05-16T04:28:21.001Z,36.68
2023-05-16T04:31:11.228Z,36.65
2023-05-16T04:34:01.458Z,36.63
2023-05-16T04:36:50.280Z,36.66
2023-05-16T04:39:39.665Z,36.50
2023-05-16T04:42:28.340Z,36.47
2023-05-16T04:45:16.969Z,36.38
2023-05-16T04:48:06.032Z,36.12
2023-05-16T04:50:56.051Z,35.91
2023-05-16T04:53:44.671Z,35.79
2023-05-16T04:56:33.237Z,35.93
2023-05-16T04:59:22.286Z,35.85
2023-05-16T05:02:11.371Z,35.91
2023-05-16T05:05:00.146Z,35.36
2023-05-16T05:07:50.265Z,35.78
2023-05-16T05:10:38.830Z,35.81
2023-05-16T05:13:27.505Z,35.78
2023-05-16T05:16:16.170Z,35.88
2023-05-16T05:19:04.983Z,35.68
2023-05-16T05:21:53.807Z,35.54
2023-05-16T05:24:43.870Z,36.10
2023-05-16T05:27:32.475Z,36.92
2023-05-16T05:30:21.097Z,37.10
2023-05-16T05:33:10.284Z,37.28
2023-05-16T05:35:59.093Z,37.29
2023-05-16T05:38:47.692Z,37.85
2023-05-16T05:41:38.082Z,37.81
2023-05-16T05:44:26.832Z,38.13
2023-05-16T05:47:15.897Z,38.13
2023-05-16T05:50:05.497Z,38.19
2023-05-16T05:52:54.254Z,37.55
2023-05-16T05:55:42.987Z,38.08
2023-05-16T05:58:32.992Z,37.76
2023-05-16T06:01:22.271Z,37.78
2023-05-16T06:04:11.286Z,37.71
2023-05-16T06:06:59.975Z,38.14
2023-05-16T06:09:48.572Z,38.07
2023-05-16T06:12:37.116Z,37.78
2023-05-16T06:15:27.586Z,37.98
2023-05-16T06:18:16.418Z,37.75
2023-05-16T06:21:05.827Z,37.98
2023-05-16T06:23:54.458Z,38.11
2023-05-16T06:26:46.131Z,38.14
2023-05-16T06:29:35.076Z,37.79
2023-05-16T06:32:27.122Z,38.15
2023-05-16T06:35:17.873Z,38.01
2023-05-16T06:38:06.451Z,37.88
2023-05-16T06:40:55.070Z,37.86
2023-05-16T06:43:43.796Z,37.83
2023-05-16T06:46:32.848Z,37.83
2023-05-16T06:49:22.968Z,38.11
2023-05-16T06:52:12.041Z,37.91
2023-05-16T06:55:00.708Z,38.47
2023-05-16T06:57:49.432Z,38.34
2023-05-16T07:00:38.132Z,37.97
2023-05-16T07:03:27.359Z,37.81
2023-05-16T07:06:17.455Z,37.98
2023-05-16T07:09:06.249Z,37.75
2023-05-16T07:11:55.035Z,37.84
2023-05-16T07:14:44.567Z,38.07
2023-05-16T07:17:33.525Z,38.14
2023-05-16T07:20:22.598Z,37.72
2023-05-16T07:23:19.785Z,37.72
2023-05-16T07:26:08.621Z,38.09
2023-05-16T07:28:57.652Z,37.61
2023-05-16T07:31:46.655Z,38.07
2023-05-16T07:34:37.647Z,37.53
2023-05-16T07:37:26.263Z,37.96
2023-05-16T07:40:18.211Z,37.47
2023-05-16T07:43:07.122Z,37.76
2023-05-16T07:45:56.471Z,37.71
2023-05-16T07:48:45.172Z,37.75
2023-05-16T07:51:35.457Z,37.58
2023-05-16T07:54:24.131Z,37.87
2023-05-16T07:57:15.535Z,37.41
2023-05-16T08:00:05.146Z,37.66
2023-05-16T08:02:54.233Z,37.48
2023-05-16T08:05:43.224Z,37.38
2023-05-16T08:08:32.058Z,37.35
2023-05-16T08:11:22.709Z,37.48
2023-05-16T08:14:13.341Z,37.53
2023-05-16T08:17:03.472Z,37.64
2023-05-16T08:19:52.238Z,37.70
2023-05-16T08:22:41.070Z,37.76
2023-05-16T08:25:29.888Z,37.47
2023-05-16T08:28:18.715Z,37.72
2023-05-16T08:31:08.837Z,37.68
2023-05-16T08:33:57.549Z,37.37
2023-05-16T08:36:48.876Z,37.63
2023-05-16T08:39:37.547Z,37.30
2023-05-16T08:42:27.406Z,37.57
2023-05-16T08:45:17.901Z,37.64
2023-05-16T08:48:10.576Z,37.69
2023-05-16T08:50:59.623Z,37.74
2023-05-16T08:53:55.739Z,37.31
2023-05-16T08:56:48.269Z,37.52
2023-05-16T08:59:37.175Z,37.54
2023-05-16T09:02:26.949Z,37.43
2023-05-16T09:05:20.007Z,37.42
2023-05-16T09:08:11.214Z,37.62
2023-05-16T09:11:00.002Z,37.53
2023-05-16T09:13:49.348Z,37.50
2023-05-16T09:16:38.103Z,37.62
2023-05-16T09:19:27.031Z,37.55
2023-05-16T09:22:17.565Z,37.60
2023-05-16T09:25:12.687Z,37.55
2023-05-16T09:28:10.050Z,37.55
2023-05-16T09:31:00.288Z,37.30
2023-05-16T09:33:49.406Z,37.52
2023-05-16T09:36:38.422Z,37.72
2023-05-16T09:39:29.622Z,38.07
2023-05-16T09:42:19.107Z,37.64
2023-05-16T09:45:10.233Z,37.86
2023-05-16T09:48:03.885Z,37.83
2023-05-16T09:50:54.275Z,37.99
2023-05-16T09:53:43.348Z,37.98
2023-05-16T09:56:33.389Z,37.76
2023-05-16T09:59:23.513Z,37.52
2023-05-16T10:02:13.105Z,37.80
2023-05-16T10:05:01.883Z,37.71
2023-05-16T10:07:52.837Z,37.72
2023-05-16T10:10:41.912Z,37.57
2023-05-16T10:13:33.657Z,37.16
2023-05-16T10:16:24.625Z,37.19
2023-05-16T10:19:13.957Z,37.05
2023-05-16T10:22:07.186Z,37.37
2023-05-16T10:25:02.381Z,37.44
2023-05-16T10:27:52.491Z,37.63
2023-05-16T10:30:44.577Z,37.66
2023-05-16T10:33:33.263Z,37.58
2023-05-16T10:36:22.232Z,37.77
2023-05-16T10:39:12.060Z,37.53
2023-05-16T10:42:01.620Z,37.69
2023-05-16T10:45:01.887Z,37.51
2023-05-16T10:47:56.787Z,37.78
2023-05-16T10:50:47.163Z,37.53
2023-05-16T10:53:37.539Z,37.30
2023-05-16T10:56:28.704Z,37.32
2023-05-16T10:59:28.580Z,37.32
2023-05-16T11:02:26.133Z,37.67
2023-05-16T11:05:21.043Z,37.30
2023-05-16T11:08:12.985Z,37.32
2023-05-16T11:11:34.987Z,37.47
2023-05-16T11:14:25.106Z,37.30
2023-05-16T11:17:15.411Z,37.23
2023-05-16T11:20:07.042Z,37.17
2023-05-16T11:23:21.484Z,37.61
2023-05-16T11:26:17.741Z,37.58
2023-05-16T11:29:06.576Z,37.30
2023-05-16T11:31:56.403Z,37.40
2023-05-16T11:34:45.638Z,37.59
2023-05-16T11:37:34.317Z,37.65
2023-05-16T11:40:24.381Z,37.61
2023-05-16T11:43:19.559Z,37.58
2023-05-16T11:46:08.887Z,37.46
2023-05-16T11:48:57.558Z,37.27
2023-05-16T11:51:47.911Z,37.57
2023-05-16T11:54:36.856Z,37.19
2023-05-16T11:57:28.191Z,37.38
2023-05-16T12:00:19.478Z,37.32
2023-05-16T12:03:08.449Z,37.17
2023-05-16T12:05:58.316Z,37.29
2023-05-16T12:08:52.365Z,37.25
2023-05-16T12:11:42.065Z,37.55
2023-05-16T12:14:32.233Z,37.67
2023-05-16T12:17:22.300Z,37.68
2023-05-16T12:20:14.324Z,37.55
2023-05-16T12:23:04.541Z,37.62
2023-05-16T12:25:55.584Z,37.57
2023-05-16T12:28:45.141Z,37.43
2023-05-16T12:31:39.770Z,37.18
2023-05-16T12:34:31.273Z,37.17
2023-05-16T12:37:21.058Z,37.41
2023-05-16T12:40:13.365Z,37.20
2023-05-16T12:43:02.798Z,37.29
2023-05-16T12:45:53.153Z,37.30
2023-05-16T12:48:44.327Z,37.20
2023-05-16T12:51:35.369Z,37.21
2023-05-16T12:54:24.318Z,37.48
2023-05-16T12:57:13.102Z,37.48
2023-05-16T13:00:02.099Z,37.95
2023-05-16T13:02:50.965Z,37.93
2023-05-16T13:05:41.128Z,37.27
2023-05-16T13:08:30.046Z,37.29
2023-05-16T13:11:19.068Z,37.56
2023-05-16T13:14:08.834Z,37.43
2023-05-16T13:17:01.100Z,37.45
2023-05-16T13:19:50.579Z,37.18
2023-05-16T13:22:42.484Z,37.06
2023-05-16T13:25:31.195Z,37.53
2023-05-16T13:28:20.127Z,37.06
2023-05-16T13:31:10.005Z,37.49
2023-05-16T13:33:58.991Z,37.25
2023-05-16T13:36:53.907Z,37.29
2023-05-16T13:39:44.955Z,37.62
2023-05-16T13:42:33.669Z,37.43
2023-05-16T13:45:22.507Z,37.36
2023-05-16T13:48:11.499Z,37.47
2023-05-16T13:51:00.289Z,37.62
2023-05-16T13:53:49.976Z,37.92
2023-05-16T13:56:40.214Z,37.63
2023-05-16T13:59:56.300Z,37.51
2023-05-16T14:02:40.738Z,37.26
2023-05-16T14:05:29.516Z,37.11
2023-05-16T14:08:18.249Z,37.07
2023-05-16T14:11:07.167Z,37.48
2023-05-16T14:13:57.435Z,37.69
2023-05-16T14:16:46.382Z,37.59
2023-05-16T14:19:35.787Z,37.63
2023-05-16T14:22:24.440Z,37.88
2023-05-16T14:25:13.528Z,37.54
2023-05-16T14:28:04.347Z,37.44
2023-05-16T14:30:54.523Z,37.57
2023-05-16T14:33:44.031Z,37.48
2023-05-16T14:36:33.003Z,37.29
2023-05-16T14:39:21.714Z,37.48
2023-05-16T14:42:11.195Z,37.24
2023-05-16T14:44:59.938Z,37.44
2023-05-16T14:47:50.116Z,37.40
2023-05-16T14:50:39.057Z,37.33
2023-05-16T14:53:27.846Z,37.44
2023-05-16T14:56:19.149Z,37.33
2023-05-16T14:59:07.755Z,37.09
2023-05-16T15:01:56.526Z,37.31
2023-05-16T15:04:46.765Z,36.96
2023-05-16T15:07:35.449Z,37.28
2023-05-16T15:10:25.679Z,37.27
2023-05-16T15:13:14.445Z,37.10
2023-05-16T15:16:03.749Z,37.07
2023-05-16T15:18:53.088Z,37.29
2023-05-16T15:21:43.215Z,37.31
2023-05-16T15:24:32.051Z,37.16
2023-05-16T15:27:23.689Z,37.50
2023-05-16T15:30:13.458Z,37.42
2023-05-16T15:33:05.013Z,37.70
2023-05-16T15:35:53.777Z,38.14
2023-05-16T15:38:45.657Z,37.97
2023-05-16T15:42:00.487Z,38.05
2023-05-16T15:44:43.398Z,37.25
2023-05-16T15:47:33.825Z,37.38
2023-05-16T15:50:22.643Z,37.34
2023-05-16T15:53:11.492Z,37.45
2023-05-16T15:56:01.703Z,37.27
2023-05-16T15:58:50.408Z,37.31
2023-05-16T16:01:39.158Z,37.21
2023-05-16T16:04:28.026Z,37.15
2023-05-16T16:07:16.886Z,37.35
2023-05-16T16:10:05.898Z,37.10
2023-05-16T16:13:03.980Z,37.47
2023-05-16T16:15:52.934Z,37.14
2023-05-16T16:18:41.814Z,37.28
2023-05-16T16:21:30.703Z,37.49
2023-05-16T16:24:20.176Z,37.28
2023-05-16T16:27:11.510Z,37.32
2023-05-16T16:30:02.497Z,37.42
2023-05-16T16:32:51.194Z,37.02
2023-05-16T16:35:39.974Z,37.43
2023-05-16T16:38:28.811Z,37.43
2023-05-16T16:41:18.208Z,37.63
2023-05-16T16:44:07.179Z,37.59
2023-05-16T16:46:57.530Z,37.32
2023-05-16T16:49:46.540Z,37.33
2023-05-16T16:52:35.417Z,37.18
2023-05-16T16:55:24.109Z,36.95
2023-05-16T16:58:12.936Z,36.89
2023-05-16T17:01:01.906Z,36.66
2023-05-16T17:03:54.446Z,36.86
2023-05-16T17:06:46.486Z,37.25
2023-05-16T17:09:36.661Z,37.02
2023-05-16T17:12:28.382Z,37.14
2023-05-16T17:15:17.643Z,37.11
2023-05-16T17:18:07.474Z,36.77
2023-05-16T17:20:57.853Z,36.96
2023-05-16T17:23:46.526Z,36.76
2023-05-16T17:26:35.643Z,36.65
2023-05-16T17:29:24.357Z,36.65
2023-05-16T17:32:13.409Z,36.79
2023-05-16T17:35:04.095Z,36.46
2023-05-16T17:37:54.196Z,36.37
2023-05-16T17:40:42.932Z,36.48
2023-05-16T17:43:32.280Z,36.38
2023-05-16T17:46:22.155Z,36.55
2023-05-16T17:49:11.625Z,36.62
2023-05-16T17:52:03.075Z,35.94
2023-05-16T17:54:53.081Z,36.21
2023-05-16T17:57:42.007Z,36.07
2023-05-16T18:00:31.638Z,35.96
2023-05-16T18:03:20.411Z,36.01
2023-05-16T18:06:09.270Z,35.75
2023-05-16T18:09:01.167Z,35.79
2023-05-16T18:11:51.875Z,35.92
2023-05-16T18:14:45.131Z,36.83
2023-05-16T18:17:38.059Z,36.12
2023-05-16T18:20:27.522Z,36.11
2023-05-16T18:23:16.369Z,36.03
2023-05-16T18:26:05.168Z,36.07
2023-05-16T18:28:55.419Z,36.07
2023-05-16T18:31:44.337Z,36.19
2023-05-16T18:34:34.356Z,35.90
2023-05-16T18:37:23.203Z,35.96
2023-05-16T18:40:12.983Z,35.95
2023-05-16T18:43:01.920Z,35.81
2023-05-16T18:45:51.895Z,35.97
2023-05-16T18:48:40.585Z,35.84
2023-05-16T18:51:29.269Z,35.76
2023-05-16T18:54:17.953Z,35.98
2023-05-16T18:57:07.789Z,35.90
2023-05-16T18:59:58.224Z,35.90
2023-05-16T19:02:48.512Z,36.01
2023-05-16T19:05:37.866Z,35.81
2023-05-16T19:08:31.300Z,35.90
2023-05-16T19:11:26.925Z,36.06
2023-05-16T19:14:15.570Z,36.20
2023-05-16T19:17:04.574Z,36.09
2023-05-16T19:19:54.787Z,36.21
2023-05-16T19:22:43.756Z,36.21
2023-05-16T19:25:32.553Z,36.59
2023-05-16T19:28:21.264Z,36.38
2023-05-16T19:31:11.126Z,36.42
2023-05-16T19:34:01.045Z,36.56
2023-05-16T19:36:52.767Z,36.31
2023-05-16T19:39:41.396Z,36.33
2023-05-16T19:42:30.205Z,36.13
2023-05-16T19:45:18.922Z,36.32
2023-05-16T19:48:09.849Z,36.20
2023-05-16T19:50:58.641Z,36.30
2023-05-16T19:53:48.794Z,36.27
2023-05-16T19:56:37.567Z,36.09
2023-05-16T19:59:26.532Z,36.25
2023-05-16T20:02:16.099Z,36.12
2023-05-16T20:05:05.647Z,36.21
2023-05-16T20:07:55.266Z,36.28
2023-05-16T20:10:45.739Z,36.37
2023-05-16T20:13:34.344Z,36.37
2023-05-16T20:16:23.040Z,36.33
2023-05-16T20:19:13.613Z,35.70
2023-05-16T20:22:02.913Z,33.05
2023-05-16T20:24:51.658Z,32.27
2023-05-16T20:27:42.559Z,32.48
2023-05-16T20:30:32.400Z,33.41
2023-05-16T20:33:21.132Z,33.88
2023-05-16T20:36:10.050Z,34.30
2023-05-16T20:38:58.815Z,34.64
2023-05-16T20:41:47.490Z,34.94
2023-05-16T20:44:37.914Z,34.79
2023-05-16T20:47:26.688Z,34.70
2023-05-16T20:50:15.418Z,34.84
2023-05-16T20:53:04.530Z,34.97
2023-05-16T20:55:53.207Z,34.80
2023-05-16T20:58:42.262Z,34.86
2023-05-16T21:01:32.602Z,34.87
2023-05-16T21:04:21.323Z,35.01
2023-05-16T21:07:11.660Z,34.92
2023-05-16T21:10:00.412Z,34.18
2023-05-16T21:12:50.476Z,33.28
2023-05-16T21:15:39.610Z,33.11
2023-05-16T21:18:29.952Z,32.99
2023-05-16T21:21:18.710Z,32.96
2023-05-16T21:24:07.927Z,32.46
2023-05-16T21:26:56.628Z,32.32
2023-05-16T21:29:45.276Z,32.45
2023-05-16T21:32:33.951Z,32.81
2023-05-16T21:35:24.132Z,32.17
2023-05-16T21:38:13.252Z,32.02
2023-05-16T21:41:01.990Z,31.66
2023-05-16T21:43:50.725Z,31.26
2023-05-16T21:46:39.346Z,31.63
2023-05-16T21:49:27.983Z,31.29
2023-05-16T21:52:18.066Z,31.02
2023-05-16T21:55:07.909Z,31.00
2023-05-16T21:57:56.551Z,31.09
2023-05-16T22:00:45.396Z,31.45
2023-05-16T22:03:34.143Z,31.58
2023-05-16T22:06:22.875Z,31.36
2023-05-16T22:09:13.019Z,31.35
2023-05-16T22:12:01.690Z,31.39
2023-05-16T22:14:50.313Z,31.36
2023-05-16T22:17:39.310Z,31.04
2023-05-16T22:20:28.126Z,30.88
2023-05-16T22:23:16.917Z,31.05
2023-05-16T22:26:07.070Z,31.30
2023-05-16T22:28:55.741Z,30.74
2023-05-16T22:31:44.890Z,30.92
2023-05-16T22:34:33.697Z,30.30
2023-05-16T22:37:22.524Z,30.52
2023-05-16T22:40:12.317Z,30.85
2023-05-16T22:43:02.379Z,31.06
2023-05-16T22:45:52.077Z,31.06
2023-05-16T22:48:40.794Z,30.89
2023-05-16T22:51:29.528Z,30.77
2023-05-16T22:54:18.305Z,30.80
2023-05-16T22:57:07.316Z,31.05
2023-05-16T22:59:57.306Z,31.03
2023-05-16T23:02:46.031Z,30.98
2023-05-16T23:05:34.913Z,31.01
2023-05-16T23:08:23.819Z,30.92
2023-05-16T23:11:12.515Z,31.01
2023-05-16T23:14:01.223Z,30.51
2023-05-16T23:16:51.244Z,30.66
2023-05-16T23:19:40.003Z,30.59
2023-05-16T23:22:28.661Z,30.64
2023-05-16T23:25:17.338Z,30.81
2023-05-16T23:28:06.299Z,31.23
2023-05-16T23:30:55.037Z,30.88
2023-05-16T23:33:45.121Z,30.78
2023-05-16T23:36:33.855Z,30.87
2023-05-16T23:39:22.541Z,31.29
2023-05-16T23:42:11.569Z,30.98
2023-05-16T23:45:00.238Z,31.27
2023-05-16T23:47:49.098Z,30.79
2023-05-16T23:50:39.285Z,30.97
2023-05-16T23:53:29.477Z,31.01
2023-05-16T23:56:18.115Z,30.61
2023-05-16T23:59:06.810Z,30.82
